E/V Nautilus — J8B3605 — position and weather

sailwx.info

Track history (hours):
 
Tides and Currents Weather Stations Pressure Air Temp Water Temp Dewpoint Dewpoint Depression Visibility Wind Speed Wind Dir Waves Ship Positions

Oceanographic research ship E/V Nautilus (St Vincent and the Grenadines)

Ship's website: http://www.nautiluslive.org

Last reported at 2017-Aug-17 01:30 UTC. Time now 2017-Aug-17 01:47 UTC.
Position N 44°31' W 124°27'.

; draft 5 m.

Type: Other ship. MMSI: 376404000.

Date/timePositionNaut miles runAvg speedWind from/ knotsBaromVisibWave heightAir tempDewpointWater temp
2017-Aug-17 01:30N 44°31' W 124°27'5 9.2
2017-Aug-17 01:01N 44°26' W 124°27'5 9.1
2017-Aug-17 00:27N 44°21' W 124°28'4 9.2
2017-Aug-17 00:00N 44°17' W 124°28'5 9.4
2017-Aug-16 23:29N 44°12' W 124°28'5 9.7
2017-Aug-16 22:58N 44°07' W 124°28'4 9.7
2017-Aug-16 22:31N 44°03' W 124°29'6 9.3
2017-Aug-16 21:52N 43°57' W 124°29'4 9.0
2017-Aug-16 21:28N 43°53' W 124°29'325 7.4
2017-Aug-15 01:23N 38°31' W 123°41'3 7.6
2017-Aug-15 00:59N 38°28' W 123°39'3 7.5
2017-Aug-15 00:31N 38°25' W 123°36'4 7.4
2017-Aug-15 00:00N 38°22' W 123°33'4 7.5
2017-Aug-14 23:31N 38°20' W 123°30'4 8.1
2017-Aug-14 23:01N 38°16' W 123°27'4 8.0
2017-Aug-14 22:31N 38°13' W 123°24'4 8.2
2017-Aug-14 22:01N 38°10' W 123°21'4 8.5
2017-Aug-14 21:31N 38°07' W 123°17'4 8.5
2017-Aug-14 21:01N 38°04' W 123°14'4 8.7
2017-Aug-14 20:31N 38°00' W 123°10'4 8.8
2017-Aug-14 20:01N 37°58' W 123°06'5 9.0
2017-Aug-14 19:31N 37°55' W 123°01'5 9.2
2017-Aug-14 19:00N 37°53' W 122°56'5 9.3
2017-Aug-14 18:31N 37°51' W 122°51'5 9.3
2017-Aug-14 17:56N 37°48' W 122°45'4 9.1
2017-Aug-14 17:29N 37°44' W 122°42'4 8.5
2017-Aug-14 17:01N 37°46' W 122°37'510.9
2017-Aug-14 16:31N 37°49' W 122°31'510.9
2017-Aug-14 16:01N 37°49' W 122°24'0 0.9
2017-Aug-14 15:28N 37°48' W 122°24'0 0.0
2017-Aug-14 14:58N 37°48' W 122°24'0 0.0
2017-Aug-14 14:28N 37°48' W 122°24'0 0.0
2017-Aug-14 13:58N 37°48' W 122°24'0 0.0
2017-Aug-14 13:28N 37°48' W 122°24'0 0.0
2017-Aug-14 12:58N 37°48' W 122°24'0 0.0
2017-Aug-14 12:28N 37°48' W 122°24'0 0.0
2017-Aug-14 11:58N 37°48' W 122°24'0 0.0
2017-Aug-14 11:28N 37°48' W 122°24'0 0.0
2017-Aug-14 10:58N 37°48' W 122°24'0 0.0
2017-Aug-14 10:28N 37°48' W 122°24'0 0.0
2017-Aug-14 09:58N 37°48' W 122°24'0 0.0
2017-Aug-14 09:28N 37°48' W 122°24'0 0.0
2017-Aug-14 08:58N 37°48' W 122°24'0 0.0
2017-Aug-14 08:28N 37°48' W 122°24'0 0.0
2017-Aug-14 07:58N 37°48' W 122°24'0 0.0
2017-Aug-14 07:28N 37°48' W 122°24'0 0.0
2017-Aug-14 06:58N 37°48' W 122°24'0 0.0
2017-Aug-14 06:28N 37°48' W 122°24'0 0.0
2017-Aug-14 05:58N 37°48' W 122°24'0 0.0
2017-Aug-14 05:25N 37°48' W 122°24'0 0.0
2017-Aug-14 04:58N 37°48' W 122°24'0 0.0
2017-Aug-14 04:28N 37°48' W 122°24'0 0.0
2017-Aug-14 03:55N 37°48' W 122°24'0 0.0
2017-Aug-14 03:28N 37°48' W 122°24'0 0.0
2017-Aug-14 02:58N 37°48' W 122°24'0 0.0
2017-Aug-14 02:28N 37°48' W 122°24'0 0.0
2017-Aug-14 01:58N 37°48' W 122°24'0 0.0
2017-Aug-14 01:28N 37°48' W 122°24'0 0.0
2017-Aug-14 00:58N 37°48' W 122°24'0 0.0
2017-Aug-14 00:28N 37°48' W 122°24'0 0.0
2017-Aug-13 23:58N 37°48' W 122°24'0 0.0
2017-Aug-13 23:28N 37°48' W 122°24'0 0.0
2017-Aug-13 22:58N 37°48' W 122°24'0 0.0
2017-Aug-13 22:28N 37°48' W 122°24'0 0.0
2017-Aug-13 21:58N 37°48' W 122°24'0 0.0
2017-Aug-13 21:28N 37°48' W 122°24'0 0.0
2017-Aug-13 20:58N 37°48' W 122°24'0 0.0
2017-Aug-13 20:28N 37°48' W 122°24'0 0.0
2017-Aug-13 19:55N 37°48' W 122°24'0 0.0
2017-Aug-13 19:28N 37°48' W 122°24'0 0.0
2017-Aug-13 18:55N 37°48' W 122°24'0 0.0
2017-Aug-13 18:28N 37°48' W 122°24'0 0.0
2017-Aug-13 18:00N 37°48' W 122°24'0 0.5
2017-Aug-13 17:30N 37°48' W 122°24'4 7.7
2017-Aug-13 17:00N 37°49' W 122°29'4 7.9
2017-Aug-13 16:30N 37°47' W 122°33'4 8.3
2017-Aug-13 16:00N 37°46' W 122°38'4 8.8
2017-Aug-13 15:30N 37°46' W 122°44'4 7.3
2017-Aug-13 14:57N 37°47' W 122°48'3 7.2
2017-Aug-13 14:30N 37°49' W 122°52'3 6.8
2017-Aug-13 14:00N 37°51' W 122°55'4 8.4
2017-Aug-13 13:30N 37°56' W 122°55'4 7.3
2017-Aug-13 13:00N 37°59' W 122°55'0 0.2
2017-Aug-13 12:30N 37°59' W 122°55'0 0.0
2017-Aug-13 12:00N 37°59' W 122°55'0 0.0
2017-Aug-13 11:30N 37°59' W 122°55'0 0.0
2017-Aug-13 11:00N 37°59' W 122°55'0 0.0
2017-Aug-13 10:30N 37°59' W 122°55'0 0.0
2017-Aug-13 10:00N 37°59' W 122°55'0 0.0
2017-Aug-13 09:29N 37°59' W 122°55'0 0.0
2017-Aug-13 09:00N 37°59' W 122°55'0 0.0
2017-Aug-13 08:30N 37°59' W 122°55'0 0.0
2017-Aug-13 08:00N 37°59' W 122°55'0 0.0
2017-Aug-13 07:30N 37°59' W 122°55'0 0.0
2017-Aug-13 07:00N 37°59' W 122°55'0 0.0
2017-Aug-13 06:30N 37°59' W 122°55'0 0.0
2017-Aug-13 06:00N 37°59' W 122°55'0 0.0
2017-Aug-13 05:30N 37°59' W 122°55'1 1.1
2017-Aug-13 05:00N 37°59' W 122°55'4 7.8
2017-Aug-13 04:30N 37°57' W 122°60'5 9.5
2017-Aug-13 04:00N 37°57' W 123°06'5 9.3
2017-Aug-13 03:30N 37°58' W 123°12'5 9.8
2017-Aug-13 03:00N 38°00' W 123°17'510.2
2017-Aug-13 02:30N 38°03' W 123°22'3 5.5
2017-Aug-13 02:00N 38°05' W 123°25'4 7.9
2017-Aug-13 01:30N 38°08' W 123°27'3 5.8
2017-Aug-13 01:00N 38°05' W 123°26'2 4.0
2017-Aug-13 00:30N 38°07' W 123°27'5 9.0
2017-Aug-13 00:00N 38°12' W 123°28'3 5.5
2017-Aug-12 23:30N 38°12' W 123°25'3 6.6
2017-Aug-12 23:00N 38°12' W 123°20'0 0.4
2017-Aug-12 22:30N 38°12' W 123°20'0 0.0
2017-Aug-12 22:00N 38°12' W 123°20'0 0.0
2017-Aug-12 21:30N 38°12' W 123°20'1 2.5
2017-Aug-12 21:00N 38°11' W 123°21'4 8.6
2017-Aug-12 20:30N 38°07' W 123°18'4 8.7
2017-Aug-12 20:00N 38°04' W 123°14'4 8.7
2017-Aug-12 19:30N 38°00' W 123°10'4 8.6
2017-Aug-12 19:00N 37°58' W 123°06'5 9.4
2017-Aug-12 18:30N 37°58' W 122°60'4 7.9
2017-Aug-12 18:00N 37°59' W 122°55'0 0.7
2017-Aug-12 17:30N 37°60' W 122°54'0 0.0
2017-Aug-12 17:00N 37°60' W 122°54'0 0.0
2017-Aug-12 16:30N 37°60' W 122°54'0 0.0
2017-Aug-12 16:00N 37°60' W 122°54'0 0.0
2017-Aug-12 15:30N 37°60' W 122°54'0 0.0
2017-Aug-12 15:00N 37°60' W 122°54'0 0.0
2017-Aug-12 14:30N 37°60' W 122°54'0 0.0
2017-Aug-12 14:00N 37°60' W 122°54'0 0.0
2017-Aug-12 13:30N 37°60' W 122°54'0 0.0
2017-Aug-12 13:00N 37°60' W 122°54'0 0.0
2017-Aug-12 12:30N 37°60' W 122°54'0 0.6
2017-Aug-12 12:00N 37°59' W 122°54'3 6.4
2017-Aug-12 11:30N 37°57' W 122°57'5 9.8
2017-Aug-12 11:00N 37°57' W 123°04'5 9.4
2017-Aug-12 10:30N 37°57' W 123°10'5 9.4
2017-Aug-12 09:59N 38°01' W 123°14'5 9.9
2017-Aug-12 09:30N 38°04' W 123°18'5 9.8
2017-Aug-12 09:00N 38°08' W 123°22'5 9.3
2017-Aug-12 08:30N 38°10' W 123°27'5 9.5
2017-Aug-12 08:00N 38°12' W 123°33'5 9.0
2017-Aug-12 07:30N 38°13' W 123°39'5 9.3
2017-Aug-12 07:00N 38°15' W 123°44'5 9.3
2017-Aug-12 06:30N 38°17' W 123°49'5 9.3
2017-Aug-12 06:00N 38°18' W 123°55'5 9.8
2017-Aug-12 05:30N 38°20' W 124°01'5 9.9
2017-Aug-12 05:00N 38°22' W 124°07'1 1.8
2017-Aug-12 04:30N 38°22' W 124°06'4 8.8
2017-Aug-12 04:00N 38°20' W 124°01'4 8.9
2017-Aug-12 03:30N 38°19' W 123°55'5 9.3
2017-Aug-12 03:00N 38°17' W 123°50'5 9.2
2017-Aug-12 02:30N 38°16' W 123°44'4 8.7
2017-Aug-12 02:00N 38°15' W 123°39'4 8.0
2017-Aug-12 01:30N 38°14' W 123°34'0 0.7
2017-Aug-12 01:00N 38°13' W 123°33'0 0.3
2017-Aug-12 00:30N 38°13' W 123°33'0 0.6
2017-Aug-12 00:00N 38°13' W 123°34'0 0.8
2017-Aug-11 23:30N 38°14' W 123°34'1 1.3
2017-Aug-11 23:01N 38°14' W 123°35'0 0.2
2017-Aug-11 22:30N 38°14' W 123°35'0 0.0
2017-Aug-11 22:00N 38°14' W 123°35'0 0.1
2017-Aug-11 21:30N 38°14' W 123°35'0 0.0
2017-Aug-11 21:00N 38°14' W 123°35'0 0.1
2017-Aug-11 20:30N 38°14' W 123°35'0 0.1
2017-Aug-11 20:00N 38°14' W 123°35'0 0.1
2017-Aug-11 19:30N 38°14' W 123°35'0 0.0
2017-Aug-11 19:00N 38°14' W 123°35'0 0.0
2017-Aug-11 18:30N 38°14' W 123°35'0 0.1
2017-Aug-11 18:00N 38°14' W 123°35'0 0.5
2017-Aug-11 17:30N 38°14' W 123°36'0 0.6
2017-Aug-11 17:00N 38°14' W 123°36'0 0.5
2017-Aug-11 16:30N 38°14' W 123°36'0 0.1
2017-Aug-11 16:00N 38°14' W 123°36'0 0.1
2017-Aug-11 15:30N 38°14' W 123°36'0 0.0
2017-Aug-11 15:00N 38°14' W 123°36'0 0.0
2017-Aug-11 14:00N 38°14' W 123°36'0 0.0
2017-Aug-11 13:30N 38°14' W 123°36'0 0.2
2017-Aug-11 13:00N 38°14' W 123°36'0 0.3
2017-Aug-11 12:30N 38°14' W 123°37'0 0.0
2017-Aug-11 12:00N 38°14' W 123°37'0 0.0
2017-Aug-11 11:30N 38°14' W 123°37'0 0.0
2017-Aug-11 11:00N 38°14' W 123°37'0 0.0
2017-Aug-11 10:30N 38°14' W 123°37'0 0.0
2017-Aug-11 10:00N 38°14' W 123°37'0 0.0
2017-Aug-11 09:30N 38°14' W 123°37'0 0.0
2017-Aug-11 08:59N 38°14' W 123°37'0 0.0
2017-Aug-11 08:30N 38°14' W 123°37'0 0.0
2017-Aug-11 08:00N 38°14' W 123°37'0 0.0
2017-Aug-11 07:30N 38°14' W 123°37'0 0.0
2017-Aug-11 07:00N 38°14' W 123°37'0 0.0
2017-Aug-11 06:30N 38°14' W 123°37'0 0.0
2017-Aug-11 06:00N 38°14' W 123°37'0 0.0
2017-Aug-11 05:30N 38°14' W 123°37'0 0.1
2017-Aug-11 05:00N 38°14' W 123°37'0 0.3
2017-Aug-11 04:30N 38°14' W 123°36'1 2.3
2017-Aug-11 04:00N 38°13' W 123°36'4 8.9
2017-Aug-11 03:30N 38°08' W 123°34'5 9.3
2017-Aug-11 03:00N 38°04' W 123°32'4 8.7
2017-Aug-11 02:30N 37°60' W 123°30'1 1.4
2017-Aug-11 02:00N 37°59' W 123°30'0 0.3
2017-Aug-11 01:30N 37°59' W 123°30'0 0.0
2017-Aug-11 01:00N 37°59' W 123°30'0 0.0
2017-Aug-11 00:30N 37°59' W 123°30'0 0.1
2017-Aug-11 00:00N 37°59' W 123°30'0 0.1
2017-Aug-10 23:30N 37°59' W 123°30'0 0.1
2017-Aug-10 23:00N 37°59' W 123°30'0 0.1
2017-Aug-10 22:30N 37°59' W 123°30'0 0.1
2017-Aug-10 22:00N 37°59' W 123°30'0 0.0
2017-Aug-10 21:30N 37°59' W 123°30'0 0.0
2017-Aug-10 21:00N 37°59' W 123°30'0 0.3
2017-Aug-10 20:30N 37°59' W 123°30'0 0.2
2017-Aug-10 20:00N 37°59' W 123°30'0 0.0
2017-Aug-10 19:30N 37°59' W 123°30'0 0.0
2017-Aug-10 19:00N 37°59' W 123°30'0 0.0
2017-Aug-10 18:30N 37°59' W 123°30'0 0.1
2017-Aug-10 18:00N 37°59' W 123°30'0 0.0
2017-Aug-10 17:30N 37°59' W 123°30'0 0.1
2017-Aug-10 17:00N 37°59' W 123°30'0 0.1
2017-Aug-10 16:30N 37°59' W 123°30'0 0.0
2017-Aug-10 16:00N 37°59' W 123°30'0 0.0
2017-Aug-10 15:30N 37°59' W 123°30'0 0.0
2017-Aug-10 15:00N 37°59' W 123°30'0 0.2
2017-Aug-10 14:30N 37°59' W 123°30'0 0.3
2017-Aug-10 14:00N 37°59' W 123°30'0 0.0
2017-Aug-10 13:30N 37°59' W 123°30'0 0.0
2017-Aug-10 13:00N 37°59' W 123°30'0 0.0
2017-Aug-10 12:30N 37°59' W 123°30'0 0.2
2017-Aug-10 12:00N 37°59' W 123°30'0 0.2
2017-Aug-10 11:30N 37°59' W 123°30'0 0.0
2017-Aug-10 11:00N 37°59' W 123°30'0 0.1
2017-Aug-10 10:30N 37°59' W 123°30'0 0.1
2017-Aug-10 10:00N 37°59' W 123°30'0 0.2
2017-Aug-10 09:30N 37°59' W 123°30'0 0.1
2017-Aug-10 09:00N 37°59' W 123°30'0 0.0
2017-Aug-10 08:30N 37°59' W 123°30'0 0.0
2017-Aug-10 08:00N 37°59' W 123°30'0 0.0
2017-Aug-10 07:30N 37°59' W 123°30'0 0.0
2017-Aug-10 07:00N 37°59' W 123°30'0 0.0
2017-Aug-10 06:30N 37°59' W 123°30'0 0.0
2017-Aug-10 06:00N 37°59' W 123°30'0 0.0
2017-Aug-10 05:30N 37°59' W 123°30'0 0.0
2017-Aug-10 05:00N 37°59' W 123°30'0 0.0
2017-Aug-10 04:30N 37°59' W 123°30'0 0.0
2017-Aug-10 04:00N 37°59' W 123°30'1 1.6
2017-Aug-10 03:30N 37°58' W 123°30'5 9.7
2017-Aug-10 03:00N 38°02' W 123°34'5 9.5
2017-Aug-10 02:30N 38°06' W 123°38'1 2.5
2017-Aug-10 02:00N 38°07' W 123°39'0 0.3
2017-Aug-10 01:30N 38°07' W 123°39'0 0.0
2017-Aug-10 01:00N 38°07' W 123°39'0 0.0
2017-Aug-10 00:30N 38°07' W 123°39'0 0.0
2017-Aug-10 00:00N 38°07' W 123°39'0 0.0
2017-Aug-09 23:30N 38°07' W 123°39'0 0.1
2017-Aug-09 23:00N 38°07' W 123°39'0 0.1
2017-Aug-09 22:30N 38°07' W 123°39'0 0.1
2017-Aug-09 22:00N 38°07' W 123°39'0 0.1
2017-Aug-09 21:30N 38°07' W 123°39'0 0.1
2017-Aug-09 21:00N 38°07' W 123°39'0 0.1
2017-Aug-09 20:30N 38°07' W 123°39'1 1.0
2017-Aug-09 20:00N 38°07' W 123°39'0 0.4
2017-Aug-09 19:30N 38°07' W 123°40'0 0.1
2017-Aug-09 19:00N 38°07' W 123°40'0 0.0
2017-Aug-09 18:30N 38°07' W 123°40'0 0.0
2017-Aug-09 18:00N 38°07' W 123°40'0 0.0
2017-Aug-09 17:30N 38°07' W 123°40'0 0.1
2017-Aug-09 17:00N 38°07' W 123°39'0 0.1
2017-Aug-09 16:30N 38°07' W 123°39'0 0.0
2017-Aug-09 16:00N 38°07' W 123°39'0 0.0
2017-Aug-09 15:30N 38°07' W 123°39'0 0.7
2017-Aug-09 15:00N 38°06' W 123°40'1 0.8
2017-Aug-09 14:03N 38°06' W 123°41'0 1.1
2017-Aug-09 14:00N 38°06' W 123°41'0 0.2
2017-Aug-09 13:30N 38°06' W 123°41'0 0.2
2017-Aug-09 13:00N 38°06' W 123°41'0 0.1
2017-Aug-09 12:30N 38°06' W 123°41'0 0.2
2017-Aug-09 12:00N 38°06' W 123°41'0 0.2
2017-Aug-09 11:30N 38°06' W 123°41'0 0.2
2017-Aug-09 11:00N 38°06' W 123°41'0 0.2
2017-Aug-09 10:30N 38°05' W 123°41'0 0.1
2017-Aug-09 10:00N 38°05' W 123°41'0 0.0
2017-Aug-09 09:30N 38°05' W 123°41'0 0.2
2017-Aug-09 09:00N 38°05' W 123°41'0 0.2
2017-Aug-09 08:30N 38°05' W 123°42'0 0.3
2017-Aug-09 08:00N 38°05' W 123°42'0 0.1
2017-Aug-09 07:30N 38°05' W 123°42'0 0.2
2017-Aug-09 07:00N 38°05' W 123°42'0 0.4
2017-Aug-09 06:30N 38°05' W 123°42'0 0.1
2017-Aug-09 06:00N 38°05' W 123°42'0 0.0
2017-Aug-09 05:30N 38°05' W 123°42'0 0.0
2017-Aug-09 05:00N 38°05' W 123°42'0 0.1
2017-Aug-09 04:30N 38°05' W 123°42'0 0.1
2017-Aug-09 04:00N 38°05' W 123°42'0 0.1
2017-Aug-09 03:30N 38°05' W 123°42'0 0.1
2017-Aug-09 03:00N 38°05' W 123°42'0 0.0
2017-Aug-09 02:30N 38°05' W 123°42'0 0.0
2017-Aug-09 02:00N 38°05' W 123°42'0 0.1
2017-Aug-09 01:30N 38°05' W 123°42'0 0.0
2017-Aug-09 01:00N 38°05' W 123°42'0 0.0
2017-Aug-09 00:30N 38°05' W 123°42'0 0.1
2017-Aug-09 00:00N 38°05' W 123°42'0 0.3
2017-Aug-08 23:30N 38°05' W 123°42'0 0.0
2017-Aug-08 23:00N 38°05' W 123°42'0 1.0
2017-Aug-08 22:30N 38°06' W 123°42'9 8.3
2017-Aug-08 21:29N 38°14' W 123°37'0 0.5
2017-Aug-08 20:52N 38°14' W 123°37'0 0.3
2017-Aug-08 20:30N 38°14' W 123°37'0 0.1
2017-Aug-08 20:00N 38°14' W 123°37'0 0.0
2017-Aug-08 19:30N 38°14' W 123°37'0 0.1
2017-Aug-08 19:00N 38°14' W 123°37'0 0.0
2017-Aug-08 18:30N 38°14' W 123°37'0 0.0
2017-Aug-08 18:00N 38°14' W 123°37'0 0.1
2017-Aug-08 17:30N 38°14' W 123°37'0 0.1
2017-Aug-08 17:00N 38°14' W 123°37'0 0.4
2017-Aug-08 16:30N 38°14' W 123°38'0 0.3
2017-Aug-08 16:00N 38°14' W 123°38'0 0.4
2017-Aug-08 15:30N 38°14' W 123°38'0 0.4
2017-Aug-08 15:00N 38°14' W 123°38'0 0.1
2017-Aug-08 14:30N 38°14' W 123°38'0 0.1
2017-Aug-08 14:00N 38°14' W 123°38'0 0.1
2017-Aug-08 13:30N 38°14' W 123°38'0 0.0
2017-Aug-08 13:00N 38°14' W 123°38'0 0.1
2017-Aug-08 12:30N 38°14' W 123°38'0 0.0
2017-Aug-08 12:00N 38°14' W 123°38'0 0.1
2017-Aug-08 11:30N 38°14' W 123°38'0 0.1
2017-Aug-08 11:00N 38°14' W 123°39'0 0.1
2017-Aug-08 10:30N 38°14' W 123°39'0 0.0
2017-Aug-08 10:00N 38°14' W 123°39'0 0.1
2017-Aug-08 09:30N 38°14' W 123°39'0 0.0
2017-Aug-08 09:00N 38°14' W 123°39'0 0.0
2017-Aug-08 08:30N 38°14' W 123°39'0 0.0
2017-Aug-08 08:00N 38°14' W 123°39'0 0.9
2017-Aug-08 07:30N 38°14' W 123°39'0 0.4
2017-Aug-08 07:00N 38°14' W 123°39'0 0.2
2017-Aug-08 06:30N 38°14' W 123°39'0 0.3
2017-Aug-08 06:00N 38°14' W 123°40'0 0.2
2017-Aug-08 05:30N 38°14' W 123°40'0 0.3
2017-Aug-08 05:00N 38°14' W 123°40'0 0.2
2017-Aug-08 04:27N 38°14' W 123°40'0 0.0
2017-Aug-08 04:00N 38°14' W 123°40'0 0.0
2017-Aug-08 03:30N 38°14' W 123°40'0 0.0
2017-Aug-08 03:00N 38°14' W 123°40'0 0.0
2017-Aug-08 02:30N 38°14' W 123°40'3 5.9
2017-Aug-08 02:00N 38°13' W 123°43'510.0
2017-Aug-08 01:30N 38°13' W 123°50'510.3
2017-Aug-08 01:00N 38°12' W 123°56'510.6
2017-Aug-08 00:30N 38°11' W 124°03'3 6.1
2017-Aug-08 00:00N 38°10' W 123°59'6 9.2
2017-Aug-07 23:24N 38°11' W 123°52'5 9.5
2017-Aug-07 22:54N 38°12' W 123°46'4 9.3
2017-Aug-07 22:30N 38°13' W 123°41'1 2.1
2017-Aug-07 22:00N 38°13' W 123°40'0 0.1
2017-Aug-07 21:30N 38°13' W 123°40'0 0.0
2017-Aug-07 21:00N 38°13' W 123°40'0 0.0
2017-Aug-07 20:30N 38°13' W 123°40'0 0.1
2017-Aug-07 20:00N 38°13' W 123°40'0 0.0
2017-Aug-07 19:30N 38°13' W 123°40'0 0.0
2017-Aug-07 19:00N 38°13' W 123°40'0 0.2
2017-Aug-07 18:30N 38°13' W 123°40'0 0.1
2017-Aug-07 17:57N 38°13' W 123°40'0 0.1
2017-Aug-07 17:30N 38°13' W 123°40'0 0.0
2017-Aug-07 17:00N 38°13' W 123°40'0 0.2
2017-Aug-07 16:30N 38°13' W 123°40'0 0.2
2017-Aug-07 16:00N 38°13' W 123°40'0 0.4
2017-Aug-07 15:30N 38°13' W 123°40'0 0.5
2017-Aug-07 15:00N 38°13' W 123°41'0 0.2
2017-Aug-07 14:30N 38°13' W 123°41'0 0.1
2017-Aug-07 14:00N 38°13' W 123°41'0 0.1
2017-Aug-07 13:30N 38°13' W 123°41'0 0.1
2017-Aug-07 13:00N 38°13' W 123°41'0 0.0
2017-Aug-07 12:30N 38°13' W 123°41'0 0.2
2017-Aug-07 12:00N 38°13' W 123°41'0 0.0
2017-Aug-07 11:30N 38°13' W 123°41'0 0.1
2017-Aug-07 11:00N 38°13' W 123°41'0 0.1
2017-Aug-07 10:30N 38°13' W 123°41'0 0.2
2017-Aug-07 10:00N 38°13' W 123°41'0 0.0
2017-Aug-07 09:30N 38°13' W 123°41'0 0.1
2017-Aug-07 09:00N 38°13' W 123°41'0 0.2
2017-Aug-07 08:30N 38°13' W 123°41'0 0.1
2017-Aug-07 07:58N 38°13' W 123°41'0 1.0
2017-Aug-07 07:30N 38°12' W 123°42'0 0.1
2017-Aug-07 06:51N 38°12' W 123°42'0 0.3
2017-Aug-07 06:30N 38°12' W 123°42'0 0.1
2017-Aug-07 06:00N 38°12' W 123°42'0 0.1
2017-Aug-07 05:24N 38°12' W 123°42'0 0.0
2017-Aug-07 04:40N 38°12' W 123°42'0 0.0
2017-Aug-07 04:29N 38°12' W 123°42'0 0.0
2017-Aug-07 03:51N 38°12' W 123°42'0 0.1
2017-Aug-07 03:16N 38°12' W 123°42'0 0.0
2017-Aug-07 02:13N 38°12' W 123°42'0 0.0
2017-Aug-07 02:00N 38°12' W 123°42'  
Track history (hours):
 
Tides and Currents Weather Stations Pressure Air Temp Water Temp Dewpoint Dewpoint Depression Visibility Wind Speed Wind Dir Waves Ship Positions

Oceanographic research ship E/V Nautilus (St Vincent and the Grenadines)

Ship's website: http://www.nautiluslive.org

Last reported at 2017-Aug-17 01:30 UTC. Time now 2017-Aug-17 01:47 UTC.
Position N 44°31' W 124°27'.

; draft 5 m.

Type: Other ship. MMSI: 376404000.

Date/timePositionNaut miles runAvg speedWind from/ knotsBaromVisibWave heightAir tempDewpointWater temp
2017-Aug-17 01:30N 44°31' W 124°27'5 9.2
2017-Aug-17 01:01N 44°26' W 124°27'5 9.1
2017-Aug-17 00:27N 44°21' W 124°28'4 9.2
2017-Aug-17 00:00N 44°17' W 124°28'5 9.4
2017-Aug-16 23:29N 44°12' W 124°28'5 9.7
2017-Aug-16 22:58N 44°07' W 124°28'4 9.7
2017-Aug-16 22:31N 44°03' W 124°29'6 9.3
2017-Aug-16 21:52N 43°57' W 124°29'4 9.0
2017-Aug-16 21:28N 43°53' W 124°29'325 7.4
2017-Aug-15 01:23N 38°31' W 123°41'3 7.6
2017-Aug-15 00:59N 38°28' W 123°39'3 7.5
2017-Aug-15 00:31N 38°25' W 123°36'4 7.4
2017-Aug-15 00:00N 38°22' W 123°33'4 7.5
2017-Aug-14 23:31N 38°20' W 123°30'4 8.1
2017-Aug-14 23:01N 38°16' W 123°27'4 8.0
2017-Aug-14 22:31N 38°13' W 123°24'4 8.2
2017-Aug-14 22:01N 38°10' W 123°21'4 8.5
2017-Aug-14 21:31N 38°07' W 123°17'4 8.5
2017-Aug-14 21:01N 38°04' W 123°14'4 8.7
2017-Aug-14 20:31N 38°00' W 123°10'4 8.8
2017-Aug-14 20:01N 37°58' W 123°06'5 9.0
2017-Aug-14 19:31N 37°55' W 123°01'5 9.2
2017-Aug-14 19:00N 37°53' W 122°56'5 9.3
2017-Aug-14 18:31N 37°51' W 122°51'5 9.3
2017-Aug-14 17:56N 37°48' W 122°45'4 9.1
2017-Aug-14 17:29N 37°44' W 122°42'4 8.5
2017-Aug-14 17:01N 37°46' W 122°37'510.9
2017-Aug-14 16:31N 37°49' W 122°31'510.9
2017-Aug-14 16:01N 37°49' W 122°24'0 0.9
2017-Aug-14 15:28N 37°48' W 122°24'0 0.0
2017-Aug-14 14:58N 37°48' W 122°24'0 0.0
2017-Aug-14 14:28N 37°48' W 122°24'0 0.0
2017-Aug-14 13:58N 37°48' W 122°24'0 0.0
2017-Aug-14 13:28N 37°48' W 122°24'0 0.0
2017-Aug-14 12:58N 37°48' W 122°24'0 0.0
2017-Aug-14 12:28N 37°48' W 122°24'0 0.0
2017-Aug-14 11:58N 37°48' W 122°24'0 0.0
2017-Aug-14 11:28N 37°48' W 122°24'0 0.0
2017-Aug-14 10:58N 37°48' W 122°24'0 0.0
2017-Aug-14 10:28N 37°48' W 122°24'0 0.0
2017-Aug-14 09:58N 37°48' W 122°24'0 0.0
2017-Aug-14 09:28N 37°48' W 122°24'0 0.0
2017-Aug-14 08:58N 37°48' W 122°24'0 0.0
2017-Aug-14 08:28N 37°48' W 122°24'0 0.0
2017-Aug-14 07:58N 37°48' W 122°24'0 0.0
2017-Aug-14 07:28N 37°48' W 122°24'0 0.0
2017-Aug-14 06:58N 37°48' W 122°24'0 0.0
2017-Aug-14 06:28N 37°48' W 122°24'0 0.0
2017-Aug-14 05:58N 37°48' W 122°24'0 0.0
2017-Aug-14 05:25N 37°48' W 122°24'0 0.0
2017-Aug-14 04:58N 37°48' W 122°24'0 0.0
2017-Aug-14 04:28N 37°48' W 122°24'0 0.0
2017-Aug-14 03:55N 37°48' W 122°24'0 0.0
2017-Aug-14 03:28N 37°48' W 122°24'0 0.0
2017-Aug-14 02:58N 37°48' W 122°24'0 0.0
2017-Aug-14 02:28N 37°48' W 122°24'0 0.0
2017-Aug-14 01:58N 37°48' W 122°24'0 0.0
2017-Aug-14 01:28N 37°48' W 122°24'0 0.0
2017-Aug-14 00:58N 37°48' W 122°24'0 0.0
2017-Aug-14 00:28N 37°48' W 122°24'0 0.0
2017-Aug-13 23:58N 37°48' W 122°24'0 0.0
2017-Aug-13 23:28N 37°48' W 122°24'0 0.0
2017-Aug-13 22:58N 37°48' W 122°24'0 0.0
2017-Aug-13 22:28N 37°48' W 122°24'0 0.0
2017-Aug-13 21:58N 37°48' W 122°24'0 0.0
2017-Aug-13 21:28N 37°48' W 122°24'0 0.0
2017-Aug-13 20:58N 37°48' W 122°24'0 0.0
2017-Aug-13 20:28N 37°48' W 122°24'0 0.0
2017-Aug-13 19:55N 37°48' W 122°24'0 0.0
2017-Aug-13 19:28N 37°48' W 122°24'0 0.0
2017-Aug-13 18:55N 37°48' W 122°24'0 0.0
2017-Aug-13 18:28N 37°48' W 122°24'0 0.0
2017-Aug-13 18:00N 37°48' W 122°24'0 0.5
2017-Aug-13 17:30N 37°48' W 122°24'4 7.7
2017-Aug-13 17:00N 37°49' W 122°29'4 7.9
2017-Aug-13 16:30N 37°47' W 122°33'4 8.3
2017-Aug-13 16:00N 37°46' W 122°38'4 8.8
2017-Aug-13 15:30N 37°46' W 122°44'4 7.3
2017-Aug-13 14:57N 37°47' W 122°48'3 7.2
2017-Aug-13 14:30N 37°49' W 122°52'3 6.8
2017-Aug-13 14:00N 37°51' W 122°55'4 8.4
2017-Aug-13 13:30N 37°56' W 122°55'4 7.3
2017-Aug-13 13:00N 37°59' W 122°55'0 0.2
2017-Aug-13 12:30N 37°59' W 122°55'0 0.0
2017-Aug-13 12:00N 37°59' W 122°55'0 0.0
2017-Aug-13 11:30N 37°59' W 122°55'0 0.0
2017-Aug-13 11:00N 37°59' W 122°55'0 0.0
2017-Aug-13 10:30N 37°59' W 122°55'0 0.0
2017-Aug-13 10:00N 37°59' W 122°55'0 0.0
2017-Aug-13 09:29N 37°59' W 122°55'0 0.0
2017-Aug-13 09:00N 37°59' W 122°55'0 0.0
2017-Aug-13 08:30N 37°59' W 122°55'0 0.0
2017-Aug-13 08:00N 37°59' W 122°55'0 0.0
2017-Aug-13 07:30N 37°59' W 122°55'0 0.0
2017-Aug-13 07:00N 37°59' W 122°55'0 0.0
2017-Aug-13 06:30N 37°59' W 122°55'0 0.0
2017-Aug-13 06:00N 37°59' W 122°55'0 0.0
2017-Aug-13 05:30N 37°59' W 122°55'1 1.1
2017-Aug-13 05:00N 37°59' W 122°55'4 7.8
2017-Aug-13 04:30N 37°57' W 122°60'5 9.5
2017-Aug-13 04:00N 37°57' W 123°06'5 9.3
2017-Aug-13 03:30N 37°58' W 123°12'5 9.8
2017-Aug-13 03:00N 38°00' W 123°17'510.2
2017-Aug-13 02:30N 38°03' W 123°22'3 5.5
2017-Aug-13 02:00N 38°05' W 123°25'4 7.9
2017-Aug-13 01:30N 38°08' W 123°27'3 5.8
2017-Aug-13 01:00N 38°05' W 123°26'2 4.0
2017-Aug-13 00:30N 38°07' W 123°27'5 9.0
2017-Aug-13 00:00N 38°12' W 123°28'3 5.5
2017-Aug-12 23:30N 38°12' W 123°25'3 6.6
2017-Aug-12 23:00N 38°12' W 123°20'0 0.4
2017-Aug-12 22:30N 38°12' W 123°20'0 0.0
2017-Aug-12 22:00N 38°12' W 123°20'0 0.0
2017-Aug-12 21:30N 38°12' W 123°20'1 2.5
2017-Aug-12 21:00N 38°11' W 123°21'4 8.6
2017-Aug-12 20:30N 38°07' W 123°18'4 8.7
2017-Aug-12 20:00N 38°04' W 123°14'4 8.7
2017-Aug-12 19:30N 38°00' W 123°10'4 8.6
2017-Aug-12 19:00N 37°58' W 123°06'5 9.4
2017-Aug-12 18:30N 37°58' W 122°60'4 7.9
2017-Aug-12 18:00N 37°59' W 122°55'0 0.7
2017-Aug-12 17:30N 37°60' W 122°54'0 0.0
2017-Aug-12 17:00N 37°60' W 122°54'0 0.0
2017-Aug-12 16:30N 37°60' W 122°54'0 0.0
2017-Aug-12 16:00N 37°60' W 122°54'0 0.0
2017-Aug-12 15:30N 37°60' W 122°54'0 0.0
2017-Aug-12 15:00N 37°60' W 122°54'0 0.0
2017-Aug-12 14:30N 37°60' W 122°54'0 0.0
2017-Aug-12 14:00N 37°60' W 122°54'0 0.0
2017-Aug-12 13:30N 37°60' W 122°54'0 0.0
2017-Aug-12 13:00N 37°60' W 122°54'0 0.0
2017-Aug-12 12:30N 37°60' W 122°54'0 0.6
2017-Aug-12 12:00N 37°59' W 122°54'3 6.4
2017-Aug-12 11:30N 37°57' W 122°57'5 9.8
2017-Aug-12 11:00N 37°57' W 123°04'5 9.4
2017-Aug-12 10:30N 37°57' W 123°10'5 9.4
2017-Aug-12 09:59N 38°01' W 123°14'5 9.9
2017-Aug-12 09:30N 38°04' W 123°18'5 9.8
2017-Aug-12 09:00N 38°08' W 123°22'5 9.3
2017-Aug-12 08:30N 38°10' W 123°27'5 9.5
2017-Aug-12 08:00N 38°12' W 123°33'5 9.0
2017-Aug-12 07:30N 38°13' W 123°39'5 9.3
2017-Aug-12 07:00N 38°15' W 123°44'5 9.3
2017-Aug-12 06:30N 38°17' W 123°49'5 9.3
2017-Aug-12 06:00N 38°18' W 123°55'5 9.8
2017-Aug-12 05:30N 38°20' W 124°01'5 9.9
2017-Aug-12 05:00N 38°22' W 124°07'1 1.8
2017-Aug-12 04:30N 38°22' W 124°06'4 8.8
2017-Aug-12 04:00N 38°20' W 124°01'4 8.9
2017-Aug-12 03:30N 38°19' W 123°55'5 9.3
2017-Aug-12 03:00N 38°17' W 123°50'5 9.2
2017-Aug-12 02:30N 38°16' W 123°44'4 8.7
2017-Aug-12 02:00N 38°15' W 123°39'4 8.0
2017-Aug-12 01:30N 38°14' W 123°34'0 0.7
2017-Aug-12 01:00N 38°13' W 123°33'0 0.3
2017-Aug-12 00:30N 38°13' W 123°33'0 0.6
2017-Aug-12 00:00N 38°13' W 123°34'0 0.8
2017-Aug-11 23:30N 38°14' W 123°34'1 1.3
2017-Aug-11 23:01N 38°14' W 123°35'0 0.2
2017-Aug-11 22:30N 38°14' W 123°35'0 0.0
2017-Aug-11 22:00N 38°14' W 123°35'0 0.1
2017-Aug-11 21:30N 38°14' W 123°35'0 0.0
2017-Aug-11 21:00N 38°14' W 123°35'0 0.1
2017-Aug-11 20:30N 38°14' W 123°35'0 0.1
2017-Aug-11 20:00N 38°14' W 123°35'0 0.1
2017-Aug-11 19:30N 38°14' W 123°35'0 0.0
2017-Aug-11 19:00N 38°14' W 123°35'0 0.0
2017-Aug-11 18:30N 38°14' W 123°35'0 0.1
2017-Aug-11 18:00N 38°14' W 123°35'0 0.5
2017-Aug-11 17:30N 38°14' W 123°36'0 0.6
2017-Aug-11 17:00N 38°14' W 123°36'0 0.5
2017-Aug-11 16:30N 38°14' W 123°36'0 0.1
2017-Aug-11 16:00N 38°14' W 123°36'0 0.1
2017-Aug-11 15:30N 38°14' W 123°36'0 0.0
2017-Aug-11 15:00N 38°14' W 123°36'0 0.0
2017-Aug-11 14:00N 38°14' W 123°36'0 0.0
2017-Aug-11 13:30N 38°14' W 123°36'0 0.2
2017-Aug-11 13:00N 38°14' W 123°36'0 0.3
2017-Aug-11 12:30N 38°14' W 123°37'0 0.0
2017-Aug-11 12:00N 38°14' W 123°37'0 0.0
2017-Aug-11 11:30N 38°14' W 123°37'0 0.0
2017-Aug-11 11:00N 38°14' W 123°37'0 0.0
2017-Aug-11 10:30N 38°14' W 123°37'0 0.0
2017-Aug-11 10:00N 38°14' W 123°37'0 0.0
2017-Aug-11 09:30N 38°14' W 123°37'0 0.0
2017-Aug-11 08:59N 38°14' W 123°37'0 0.0
2017-Aug-11 08:30N 38°14' W 123°37'0 0.0
2017-Aug-11 08:00N 38°14' W 123°37'0 0.0
2017-Aug-11 07:30N 38°14' W 123°37'0 0.0
2017-Aug-11 07:00N 38°14' W 123°37'0 0.0
2017-Aug-11 06:30N 38°14' W 123°37'0 0.0
2017-Aug-11 06:00N 38°14' W 123°37'0 0.0
2017-Aug-11 05:30N 38°14' W 123°37'0 0.1
2017-Aug-11 05:00N 38°14' W 123°37'0 0.3
2017-Aug-11 04:30N 38°14' W 123°36'1 2.3
2017-Aug-11 04:00N 38°13' W 123°36'4 8.9
2017-Aug-11 03:30N 38°08' W 123°34'5 9.3
2017-Aug-11 03:00N 38°04' W 123°32'4 8.7
2017-Aug-11 02:30N 37°60' W 123°30'1 1.4
2017-Aug-11 02:00N 37°59' W 123°30'0 0.3
2017-Aug-11 01:30N 37°59' W 123°30'0 0.0
2017-Aug-11 01:00N 37°59' W 123°30'0 0.0
2017-Aug-11 00:30N 37°59' W 123°30'0 0.1
2017-Aug-11 00:00N 37°59' W 123°30'0 0.1
2017-Aug-10 23:30N 37°59' W 123°30'0 0.1
2017-Aug-10 23:00N 37°59' W 123°30'0 0.1
2017-Aug-10 22:30N 37°59' W 123°30'0 0.1
2017-Aug-10 22:00N 37°59' W 123°30'0 0.0
2017-Aug-10 21:30N 37°59' W 123°30'0 0.0
2017-Aug-10 21:00N 37°59' W 123°30'0 0.3
2017-Aug-10 20:30N 37°59' W 123°30'0 0.2
2017-Aug-10 20:00N 37°59' W 123°30'0 0.0
2017-Aug-10 19:30N 37°59' W 123°30'0 0.0
2017-Aug-10 19:00N 37°59' W 123°30'0 0.0
2017-Aug-10 18:30N 37°59' W 123°30'0 0.1
2017-Aug-10 18:00N 37°59' W 123°30'0 0.0
2017-Aug-10 17:30N 37°59' W 123°30'0 0.1
2017-Aug-10 17:00N 37°59' W 123°30'0 0.1
2017-Aug-10 16:30N 37°59' W 123°30'0 0.0
2017-Aug-10 16:00N 37°59' W 123°30'0 0.0
2017-Aug-10 15:30N 37°59' W 123°30'0 0.0
2017-Aug-10 15:00N 37°59' W 123°30'0 0.2
2017-Aug-10 14:30N 37°59' W 123°30'0 0.3
2017-Aug-10 14:00N 37°59' W 123°30'0 0.0
2017-Aug-10 13:30N 37°59' W 123°30'0 0.0
2017-Aug-10 13:00N 37°59' W 123°30'0 0.0
2017-Aug-10 12:30N 37°59' W 123°30'0 0.2
2017-Aug-10 12:00N 37°59' W 123°30'0 0.2
2017-Aug-10 11:30N 37°59' W 123°30'0 0.0
2017-Aug-10 11:00N 37°59' W 123°30'0 0.1
2017-Aug-10 10:30N 37°59' W 123°30'0 0.1
2017-Aug-10 10:00N 37°59' W 123°30'0 0.2
2017-Aug-10 09:30N 37°59' W 123°30'0 0.1
2017-Aug-10 09:00N 37°59' W 123°30'0 0.0
2017-Aug-10 08:30N 37°59' W 123°30'0 0.0
2017-Aug-10 08:00N 37°59' W 123°30'0 0.0
2017-Aug-10 07:30N 37°59' W 123°30'0 0.0
2017-Aug-10 07:00N 37°59' W 123°30'0 0.0
2017-Aug-10 06:30N 37°59' W 123°30'0 0.0
2017-Aug-10 06:00N 37°59' W 123°30'0 0.0
2017-Aug-10 05:30N 37°59' W 123°30'0 0.0
2017-Aug-10 05:00N 37°59' W 123°30'0 0.0
2017-Aug-10 04:30N 37°59' W 123°30'0 0.0
2017-Aug-10 04:00N 37°59' W 123°30'1 1.6
2017-Aug-10 03:30N 37°58' W 123°30'5 9.7
2017-Aug-10 03:00N 38°02' W 123°34'5 9.5
2017-Aug-10 02:30N 38°06' W 123°38'1 2.5
2017-Aug-10 02:00N 38°07' W 123°39'0 0.3
2017-Aug-10 01:30N 38°07' W 123°39'0 0.0
2017-Aug-10 01:00N 38°07' W 123°39'0 0.0
2017-Aug-10 00:30N 38°07' W 123°39'0 0.0
2017-Aug-10 00:00N 38°07' W 123°39'0 0.0
2017-Aug-09 23:30N 38°07' W 123°39'0 0.1
2017-Aug-09 23:00N 38°07' W 123°39'0 0.1
2017-Aug-09 22:30N 38°07' W 123°39'0 0.1
2017-Aug-09 22:00N 38°07' W 123°39'0 0.1
2017-Aug-09 21:30N 38°07' W 123°39'0 0.1
2017-Aug-09 21:00N 38°07' W 123°39'0 0.1
2017-Aug-09 20:30N 38°07' W 123°39'1 1.0
2017-Aug-09 20:00N 38°07' W 123°39'0 0.4
2017-Aug-09 19:30N 38°07' W 123°40'0 0.1
2017-Aug-09 19:00N 38°07' W 123°40'0 0.0
2017-Aug-09 18:30N 38°07' W 123°40'0 0.0
2017-Aug-09 18:00N 38°07' W 123°40'0 0.0
2017-Aug-09 17:30N 38°07' W 123°40'0 0.1
2017-Aug-09 17:00N 38°07' W 123°39'0 0.1
2017-Aug-09 16:30N 38°07' W 123°39'0 0.0
2017-Aug-09 16:00N 38°07' W 123°39'0 0.0
2017-Aug-09 15:30N 38°07' W 123°39'0 0.7
2017-Aug-09 15:00N 38°06' W 123°40'1 0.8
2017-Aug-09 14:03N 38°06' W 123°41'0 1.1
2017-Aug-09 14:00N 38°06' W 123°41'0 0.2
2017-Aug-09 13:30N 38°06' W 123°41'0 0.2
2017-Aug-09 13:00N 38°06' W 123°41'0 0.1
2017-Aug-09 12:30N 38°06' W 123°41'0 0.2
2017-Aug-09 12:00N 38°06' W 123°41'0 0.2
2017-Aug-09 11:30N 38°06' W 123°41'0 0.2
2017-Aug-09 11:00N 38°06' W 123°41'0 0.2
2017-Aug-09 10:30N 38°05' W 123°41'0 0.1
2017-Aug-09 10:00N 38°05' W 123°41'0 0.0
2017-Aug-09 09:30N 38°05' W 123°41'0 0.2
2017-Aug-09 09:00N 38°05' W 123°41'0 0.2
2017-Aug-09 08:30N 38°05' W 123°42'0 0.3
2017-Aug-09 08:00N 38°05' W 123°42'0 0.1
2017-Aug-09 07:30N 38°05' W 123°42'0 0.2
2017-Aug-09 07:00N 38°05' W 123°42'0 0.4
2017-Aug-09 06:30N 38°05' W 123°42'0 0.1
2017-Aug-09 06:00N 38°05' W 123°42'0 0.0
2017-Aug-09 05:30N 38°05' W 123°42'0 0.0
2017-Aug-09 05:00N 38°05' W 123°42'0 0.1
2017-Aug-09 04:30N 38°05' W 123°42'0 0.1
2017-Aug-09 04:00N 38°05' W 123°42'0 0.1
2017-Aug-09 03:30N 38°05' W 123°42'0 0.1
2017-Aug-09 03:00N 38°05' W 123°42'0 0.0
2017-Aug-09 02:30N 38°05' W 123°42'0 0.0
2017-Aug-09 02:00N 38°05' W 123°42'0 0.1
2017-Aug-09 01:30N 38°05' W 123°42'0 0.0
2017-Aug-09 01:00N 38°05' W 123°42'0 0.0
2017-Aug-09 00:30N 38°05' W 123°42'0 0.1
2017-Aug-09 00:00N 38°05' W 123°42'0 0.3
2017-Aug-08 23:30N 38°05' W 123°42'0 0.0
2017-Aug-08 23:00N 38°05' W 123°42'0 1.0
2017-Aug-08 22:30N 38°06' W 123°42'9 8.3
2017-Aug-08 21:29N 38°14' W 123°37'0 0.5
2017-Aug-08 20:52N 38°14' W 123°37'0 0.3
2017-Aug-08 20:30N 38°14' W 123°37'0 0.1
2017-Aug-08 20:00N 38°14' W 123°37'0 0.0
2017-Aug-08 19:30N 38°14' W 123°37'0 0.1
2017-Aug-08 19:00N 38°14' W 123°37'0 0.0
2017-Aug-08 18:30N 38°14' W 123°37'0 0.0
2017-Aug-08 18:00N 38°14' W 123°37'0 0.1
2017-Aug-08 17:30N 38°14' W 123°37'0 0.1
2017-Aug-08 17:00N 38°14' W 123°37'0 0.4
2017-Aug-08 16:30N 38°14' W 123°38'0 0.3
2017-Aug-08 16:00N 38°14' W 123°38'0 0.4
2017-Aug-08 15:30N 38°14' W 123°38'0 0.4
2017-Aug-08 15:00N 38°14' W 123°38'0 0.1
2017-Aug-08 14:30N 38°14' W 123°38'0 0.1
2017-Aug-08 14:00N 38°14' W 123°38'0 0.1
2017-Aug-08 13:30N 38°14' W 123°38'0 0.0
2017-Aug-08 13:00N 38°14' W 123°38'0 0.1
2017-Aug-08 12:30N 38°14' W 123°38'0 0.0
2017-Aug-08 12:00N 38°14' W 123°38'0 0.1
2017-Aug-08 11:30N 38°14' W 123°38'0 0.1
2017-Aug-08 11:00N 38°14' W 123°39'0 0.1
2017-Aug-08 10:30N 38°14' W 123°39'0 0.0
2017-Aug-08 10:00N 38°14' W 123°39'0 0.1
2017-Aug-08 09:30N 38°14' W 123°39'0 0.0
2017-Aug-08 09:00N 38°14' W 123°39'0 0.0
2017-Aug-08 08:30N 38°14' W 123°39'0 0.0
2017-Aug-08 08:00N 38°14' W 123°39'0 0.9
2017-Aug-08 07:30N 38°14' W 123°39'0 0.4
2017-Aug-08 07:00N 38°14' W 123°39'0 0.2
2017-Aug-08 06:30N 38°14' W 123°39'0 0.3
2017-Aug-08 06:00N 38°14' W 123°40'0 0.2
2017-Aug-08 05:30N 38°14' W 123°40'0 0.3
2017-Aug-08 05:00N 38°14' W 123°40'0 0.2
2017-Aug-08 04:27N 38°14' W 123°40'0 0.0
2017-Aug-08 04:00N 38°14' W 123°40'0 0.0
2017-Aug-08 03:30N 38°14' W 123°40'0 0.0
2017-Aug-08 03:00N 38°14' W 123°40'0 0.0
2017-Aug-08 02:30N 38°14' W 123°40'3 5.9
2017-Aug-08 02:00N 38°13' W 123°43'510.0
2017-Aug-08 01:30N 38°13' W 123°50'510.3
2017-Aug-08 01:00N 38°12' W 123°56'510.6
2017-Aug-08 00:30N 38°11' W 124°03'3 6.1
2017-Aug-08 00:00N 38°10' W 123°59'6 9.2
2017-Aug-07 23:24N 38°11' W 123°52'5 9.5
2017-Aug-07 22:54N 38°12' W 123°46'4 9.3
2017-Aug-07 22:30N 38°13' W 123°41'1 2.1
2017-Aug-07 22:00N 38°13' W 123°40'0 0.1
2017-Aug-07 21:30N 38°13' W 123°40'0 0.0
2017-Aug-07 21:00N 38°13' W 123°40'0 0.0
2017-Aug-07 20:30N 38°13' W 123°40'0 0.1
2017-Aug-07 20:00N 38°13' W 123°40'0 0.0
2017-Aug-07 19:30N 38°13' W 123°40'0 0.0
2017-Aug-07 19:00N 38°13' W 123°40'0 0.2
2017-Aug-07 18:30N 38°13' W 123°40'0 0.1
2017-Aug-07 17:57N 38°13' W 123°40'0 0.1
2017-Aug-07 17:30N 38°13' W 123°40'0 0.0
2017-Aug-07 17:00N 38°13' W 123°40'0 0.2
2017-Aug-07 16:30N 38°13' W 123°40'0 0.2
2017-Aug-07 16:00N 38°13' W 123°40'0 0.4
2017-Aug-07 15:30N 38°13' W 123°40'0 0.5
2017-Aug-07 15:00N 38°13' W 123°41'0 0.2
2017-Aug-07 14:30N 38°13' W 123°41'0 0.1
2017-Aug-07 14:00N 38°13' W 123°41'0 0.1
2017-Aug-07 13:30N 38°13' W 123°41'0 0.1
2017-Aug-07 13:00N 38°13' W 123°41'0 0.0
2017-Aug-07 12:30N 38°13' W 123°41'0 0.2
2017-Aug-07 12:00N 38°13' W 123°41'0 0.0
2017-Aug-07 11:30N 38°13' W 123°41'0 0.1
2017-Aug-07 11:00N 38°13' W 123°41'0 0.1
2017-Aug-07 10:30N 38°13' W 123°41'0 0.2
2017-Aug-07 10:00N 38°13' W 123°41'0 0.0
2017-Aug-07 09:30N 38°13' W 123°41'0 0.1
2017-Aug-07 09:00N 38°13' W 123°41'0 0.2
2017-Aug-07 08:30N 38°13' W 123°41'0 0.1
2017-Aug-07 07:58N 38°13' W 123°41'0 1.0
2017-Aug-07 07:30N 38°12' W 123°42'0 0.1
2017-Aug-07 06:51N 38°12' W 123°42'0 0.3
2017-Aug-07 06:30N 38°12' W 123°42'0 0.1
2017-Aug-07 06:00N 38°12' W 123°42'0 0.1
2017-Aug-07 05:24N 38°12' W 123°42'0 0.0
2017-Aug-07 04:40N 38°12' W 123°42'0 0.0
2017-Aug-07 04:29N 38°12' W 123°42'0 0.0
2017-Aug-07 03:51N 38°12' W 123°42'0 0.1
2017-Aug-07 03:16N 38°12' W 123°42'0 0.0
2017-Aug-07 02:13N 38°12' W 123°42'0 0.0
2017-Aug-07 02:00N 38°12' W 123°42'  

Dump ship's entire track history